Metar Aviation Weather Data LIME Il Caravaggio International

4°C Temp
1°C Dewpoint
81% Humidity
Temperature
5 KM/H
3 MPH
3 KTS
220°
South West

Wind Speed
Misty
Conditions
Pressure 1022 (hPa) - 30.18 (in)
Visibility 1.9 (mi) - 3 (km)

Current Conditions
LIME
Il Caravaggio International
Metar :LIME 171550Z 22003KT 3000 BR NSC 04/01 Q1022 NOSIG
Mon 17th December 17:50 pm

Il Caravaggio International
  Metar Aviation API Data Provided by https://www.checkwx.com/ PHP scripts by weather34.com ©2018